Time;durP1;ratioP1;P1;durP2;ratioP2;P2;SDS_P1;SDS_P2;PMS_P1;PMS_P2;Temp;Humidity;BMP_temperature;BMP_pressure;BME280_temperature;BME280_humidity;BME280_pressure;Samples;Min_cycle;Max_cycle;Signal;HPM_P1;HPM_P2
2022/10/26 00:02:13;;;;;;;;;;;;;;;15.65;59.81;99996.59;4913089;29;19974;-82
2022/10/26 00:04:38;;;;;;;;;;;;;;;15.63;60.31;99998.41;4912252;29;19911;-83
2022/10/26 00:07:03;;;;;;;;;;;;;;;15.65;59.80;99997.44;4912327;29;20385;-83
2022/10/26 00:09:29;;;;;;;;;;;;;;;15.71;59.42;99994.59;4912667;29;20367;-82
2022/10/26 00:11:54;;;;;;;;;;;;;;;15.65;59.56;99996.59;4912475;29;20398;-83
2022/10/26 00:14:19;;;;;;;;;;;;;;;15.64;59.70;99994.84;4912593;29;19918;-82
2022/10/26 00:16:44;;;;;;;;;;;;;;;15.49;59.62;99990.84;4912320;29;19915;-82
2022/10/26 00:19:10;;;;;;;;;;;;;;;15.48;59.69;99990.00;4912117;29;20396;-82
2022/10/26 00:21:35;;;;;;;;;;;;;;;15.55;59.36;99990.66;4912293;29;19923;-82
2022/10/26 00:24:00;;;;;;;;;;;;;;;15.47;59.21;99990.03;4912102;29;20025;-83
2022/10/26 00:26:26;;;;;;;;;;;;;;;15.37;60.03;99992.97;4912033;29;19927;-83
2022/10/26 00:28:53;;;;;;;;;;;;;;;15.36;59.57;100001.00;4911717;29;20663;-82
2022/10/26 00:31:19;;;;;;;;;;;;;;;15.41;59.27;100001.72;4895412;29;20313;-83
2022/10/26 00:33:44;;;;;;;;;;;;;;;15.35;59.35;99999.25;4912076;29;19915;-83
2022/10/26 00:36:09;;;;;;;;;;;;;;;15.27;59.63;99999.47;4912434;29;20439;-82
2022/10/26 00:38:35;;;;;;;;;;;;;;;15.24;59.86;100001.34;4912409;29;20433;-82
2022/10/26 00:41:00;;;;;;;;;;;;;;;15.05;60.47;100001.88;4912098;29;19919;-83
2022/10/26 00:43:26;;;;;;;;;;;;;;;14.86;61.32;100005.06;4911702;29;19919;-83
2022/10/26 00:45:52;;;;;;;;;;;;;;;14.90;61.30;99997.88;4894556;29;20298;-83
2022/10/26 00:48:29;;;;;;;;;;;;;;;14.64;61.37;100007.44;4911883;29;20313;-83
2022/10/26 00:50:55;;;;;;;;;;;;;;;14.77;61.09;99999.13;4897439;29;19931;-83
2022/10/26 00:53:21;;;;;;;;;;;;;;;14.14;61.54;100007.78;4893043;29;19915;-83
2022/10/26 00:55:48;;;;;;;;;;;;;;;13.92;62.43;100004.78;4893195;29;19926;-83
2022/10/26 00:58:14;;;;;;;;;;;;;;;13.81;63.09;99995.31;4896562;29;19922;-82
2022/10/26 01:00:40;;;;;;;;;;;;;;;13.79;63.61;100004.22;4897632;29;19978;-83
2022/10/26 01:03:06;;;;;;;;;;;;;;;13.95;64.08;99995.88;4892954;29;19923;-83
2022/10/26 01:05:33;;;;;;;;;;;;;;;14.24;62.63;99996.94;4902254;29;20317;-83
2022/10/26 01:07:59;;;;;;;;;;;;;;;14.26;62.81;99995.13;4911252;29;19918;-83
2022/10/26 01:10:25;;;;;;;;;;;;;;;14.48;62.33;99996.28;4911676;29;19934;-83
2022/10/26 01:12:51;;;;;;;;;;;;;;;14.67;61.73;99993.19;4911835;29;19918;-83
2022/10/26 01:15:17;;;;;;;;;;;;;;;14.65;61.11;99984.41;4911084;29;19926;-82
2022/10/26 01:17:57;;;;;;;;;;;;;;;14.73;61.89;99985.06;4911679;29;19941;-83
2022/10/26 01:20:22;;;;;;;;;;;;;;;14.81;60.54;99976.88;4892504;29;20402;-83
2022/10/26 01:22:54;;;;;;;;;;;;;;;15.06;59.33;99986.81;4894173;29;19975;-83
2022/10/26 01:25:32;;;;;;;;;;;;;;;15.33;58.04;99985.13;4911749;29;19914;-83
2022/10/26 01:27:59;;;;;;;;;;;;;;;15.59;57.02;99989.66;4906747;29;19930;-83
2022/10/26 01:30:31;;;;;;;;;;;;;;;15.79;56.38;99989.06;4892401;29;20042;-83
2022/10/26 01:33:15;;;;;;;;;;;;;;;16.05;55.26;99984.66;4892678;29;19951;-83
2022/10/26 01:35:58;;;;;;;;;;;;;;;16.23;54.73;99981.41;4892464;29;19967;-84
2022/10/26 01:38:42;;;;;;;;;;;;;;;16.13;54.67;99973.78;4901536;29;19915;-85
2022/10/26 01:41:22;;;;;;;;;;;;;;;16.14;54.93;99972.88;4892474;29;19946;-84
2022/10/26 01:43:52;;;;;;;;;;;;;;;16.31;54.23;99974.97;4892332;29;19915;-83
2022/10/26 01:46:20;;;;;;;;;;;;;;;16.31;54.26;99967.81;4901458;29;20489;-81
2022/10/26 01:48:46;;;;;;;;;;;;;;;16.41;54.26;99965.75;4911364;29;20287;-83
2022/10/26 01:51:13;;;;;;;;;;;;;;;16.54;54.61;99968.84;4911252;29;19919;-82
2022/10/26 01:53:43;;;;;;;;;;;;;;;16.57;54.44;99968.72;4910839;29;20346;-82
2022/10/26 01:56:18;;;;;;;;;;;;;;;16.75;54.05;99968.06;4910866;29;19930;-83
2022/10/26 01:58:56;;;;;;;;;;;;;;;16.92;53.82;99970.16;4910865;29;19919;-84
2022/10/26 02:01:41;;;;;;;;;;;;;;;17.00;53.69;99976.06;4911405;29;19915;-83
2022/10/26 02:04:25;;;;;;;;;;;;;;;17.19;53.08;99975.38;4910642;29;20028;-84
2022/10/26 02:06:50;;;;;;;;;;;;;;;17.32;52.66;99975.78;4894212;29;20298;-84
2022/10/26 02:09:15;;;;;;;;;;;;;;;17.44;52.29;99969.09;4910761;29;19978;-83
2022/10/26 02:11:45;;;;;;;;;;;;;;;17.44;52.32;99975.31;4910874;29;19919;-84
2022/10/26 02:14:10;;;;;;;;;;;;;;;17.59;51.93;99971.16;4910243;29;19927;-83
2022/10/26 02:16:38;;;;;;;;;;;;;;;17.68;51.72;99972.59;4910719;29;19929;-84
2022/10/26 02:19:22;;;;;;;;;;;;;;;17.86;51.23;99963.00;4911448;29;19915;-83
2022/10/26 02:21:51;;;;;;;;;;;;;;;18.06;50.57;99970.22;4914325;29;19923;-82
2022/10/26 02:24:18;;;;;;;;;;;;;;;18.10;50.22;99978.94;4914671;29;19915;-83
2022/10/26 02:26:46;;;;;;;;;;;;;;;18.23;50.00;99975.72;4896864;29;19987;-84
2022/10/26 02:29:14;;;;;;;;;;;;;;;18.28;49.47;99972.84;4914282;29;19970;-83
2022/10/26 02:31:40;;;;;;;;;;;;;;;18.35;49.26;99982.34;4897332;29;19922;-85
2022/10/26 02:34:08;;;;;;;;;;;;;;;18.30;49.18;99978.97;4913778;29;19974;-84
2022/10/26 02:36:35;;;;;;;;;;;;;;;18.35;49.05;99971.66;4914142;29;19923;-83
2022/10/26 02:39:02;;;;;;;;;;;;;;;18.31;49.21;99975.38;4914151;29;19915;-83
2022/10/26 02:41:29;;;;;;;;;;;;;;;18.40;48.85;99974.13;4915257;29;20679;-84
2022/10/26 02:44:13;;;;;;;;;;;;;;;18.37;49.20;99969.78;4933027;29;19918;-84
2022/10/26 02:46:38;;;;;;;;;;;;;;;18.28;49.21;99978.19;4944660;28;19941;-84
2022/10/26 02:49:04;;;;;;;;;;;;;;;18.21;49.07;99974.03;4927687;28;20397;-83
2022/10/26 02:51:32;;;;;;;;;;;;;;;18.18;49.41;99980.38;4913986;29;19915;-84
2022/10/26 02:54:14;;;;;;;;;;;;;;;18.21;49.29;99980.25;4920009;29;19926;-83
2022/10/26 02:56:58;;;;;;;;;;;;;;;18.11;49.74;99983.38;4932640;29;19962;-84
2022/10/26 02:59:25;;;;;;;;;;;;;;;18.08;50.18;99977.22;4932794;29;19919;-84
2022/10/26 03:01:52;;;;;;;;;;;;;;;18.05;50.09;99980.00;4929040;29;20310;-83
2022/10/26 03:04:17;;;;;;;;;;;;;;;18.12;49.99;99982.41;4901827;29;20408;-83
2022/10/26 03:06:50;;;;;;;;;;;;;;;18.19;50.07;99982.09;4932195;29;19922;-84
2022/10/26 03:09:16;;;;;;;;;;;;;;;18.16;49.94;99976.03;4932708;29;19959;-82
2022/10/26 03:11:41;;;;;;;;;;;;;;;18.38;49.23;99984.00;4934217;29;20816;-83
2022/10/26 03:14:06;;;;;;;;;;;;;;;18.34;49.33;99983.25;4918775;29;19927;-82
2022/10/26 03:16:31;;;;;;;;;;;;;;;18.33;49.64;99983.31;4914835;29;19918;-82
2022/10/26 03:18:57;;;;;;;;;;;;;;;18.42;49.42;99988.28;4925557;29;20433;-82
2022/10/26 03:21:22;;;;;;;;;;;;;;;18.39;49.49;99989.25;4931899;29;20018;-83
2022/10/26 03:23:49;;;;;;;;;;;;;;;18.34;49.43;99993.94;4932291;29;19919;-81
2022/10/26 03:26:14;;;;;;;;;;;;;;;18.43;49.39;99998.91;4914580;29;19961;-85
2022/10/26 03:28:40;;;;;;;;;;;;;;;18.34;49.40;99988.59;4913848;29;20349;-82
2022/10/26 03:31:05;;;;;;;;;;;;;;;18.49;49.51;99991.53;4931647;29;20017;-83
2022/10/26 03:33:30;;;;;;;;;;;;;;;18.47;49.10;99991.59;4930136;29;20357;-82
2022/10/26 03:35:56;;;;;;;;;;;;;;;18.53;49.18;99988.66;4932086;29;19918;-82
2022/10/26 03:38:21;;;;;;;;;;;;;;;18.58;49.06;99994.72;4932660;29;19918;-84
2022/10/26 03:40:47;;;;;;;;;;;;;;;18.41;49.09;99999.88;4932619;29;20025;-83
2022/10/26 03:43:12;;;;;;;;;;;;;;;18.61;48.72;100010.59;4944492;29;19922;-84
2022/10/26 03:45:38;;;;;;;;;;;;;;;18.55;48.71;100007.31;4945707;29;19922;-85
2022/10/26 03:48:03;;;;;;;;;;;;;;;18.52;48.48;100010.09;4949489;28;19926;-85
2022/10/26 03:50:28;;;;;;;;;;;;;;;18.56;48.54;100017.06;4923770;29;19919;-84
2022/10/26 03:52:53;;;;;;;;;;;;;;;18.24;49.35;100017.50;4916716;29;19918;-83
2022/10/26 03:55:19;;;;;;;;;;;;;;;17.91;50.35;100024.22;4931838;29;19915;-84
2022/10/26 03:57:44;;;;;;;;;;;;;;;17.68;50.81;100025.94;4929091;29;19922;-84
2022/10/26 04:00:11;;;;;;;;;;;;;;;17.69;50.95;100030.38;4930709;29;19918;-84
2022/10/26 04:02:37;;;;;;;;;;;;;;;17.76;51.02;100022.97;4929818;29;20731;-84
2022/10/26 04:05:02;;;;;;;;;;;;;;;17.75;50.85;100026.56;4922079;29;19923;-84
2022/10/26 04:07:27;;;;;;;;;;;;;;;17.51;50.97;100022.13;4929566;29;19926;-85
2022/10/26 04:09:53;;;;;;;;;;;;;;;17.40;51.23;100024.34;4924452;29;20437;-85
2022/10/26 04:12:21;;;;;;;;;;;;;;;17.01;51.79;100024.91;4933254;29;20674;-84
2022/10/26 04:14:46;;;;;;;;;;;;;;;16.92;52.16;100022.59;4933865;29;19998;-84
2022/10/26 04:17:12;;;;;;;;;;;;;;;17.03;51.79;100032.84;4936225;29;20361;-86
2022/10/26 04:19:37;;;;;;;;;;;;;;;16.83;51.89;100043.25;4934759;29;19918;-82
2022/10/26 04:22:02;;;;;;;;;;;;;;;16.73;52.42;100043.63;4935264;29;19925;-86
2022/10/26 04:24:28;;;;;;;;;;;;;;;16.87;52.17;100049.38;4935476;29;19934;-85
2022/10/26 04:26:53;;;;;;;;;;;;;;;16.94;51.99;100045.56;4931461;29;19957;-85
2022/10/26 04:29:18;;;;;;;;;;;;;;;17.00;51.97;100047.16;4916535;29;20013;-84
2022/10/26 04:31:43;;;;;;;;;;;;;;;17.04;52.03;100045.22;4934488;29;19953;-85
2022/10/26 04:34:09;;;;;;;;;;;;;;;17.01;52.34;100048.91;4934812;29;20006;-85
2022/10/26 04:36:34;;;;;;;;;;;;;;;16.95;52.52;100057.09;4939770;29;19922;-85
2022/10/26 04:39:00;;;;;;;;;;;;;;;17.02;52.60;100063.94;4933173;29;20677;-85
2022/10/26 04:41:25;;;;;;;;;;;;;;;17.13;52.05;100060.88;4931880;29;20037;-84
2022/10/26 04:43:50;;;;;;;;;;;;;;;17.31;51.75;100067.34;4933903;29;19925;-85
2022/10/26 04:46:16;;;;;;;;;;;;;;;17.42;51.25;100062.47;4932632;29;20441;-84
2022/10/26 04:48:41;;;;;;;;;;;;;;;17.35;51.43;100067.19;4914242;29;20469;-83
2022/10/26 04:51:06;;;;;;;;;;;;;;;17.45;51.20;100072.19;4913805;29;19923;-84
2022/10/26 04:53:32;;;;;;;;;;;;;;;17.51;50.94;100080.81;4924434;29;19942;-84
2022/10/26 04:56:00;;;;;;;;;;;;;;;17.49;50.96;100089.81;4911327;29;19919;-83
2022/10/26 04:58:26;;;;;;;;;;;;;;;17.54;51.01;100091.34;4910956;29;19998;-83
2022/10/26 05:00:52;;;;;;;;;;;;;;;17.46;51.27;100089.94;4911404;29;20392;-83
2022/10/26 05:03:17;;;;;;;;;;;;;;;17.45;51.34;100096.19;4924035;29;19918;-83
2022/10/26 05:05:42;;;;;;;;;;;;;;;17.62;51.07;100100.88;4912222;29;20382;-85
2022/10/26 05:08:08;;;;;;;;;;;;;;;17.42;51.35;100088.28;4910599;29;20429;-84
2022/10/26 05:10:33;;;;;;;;;;;;;;;17.47;51.48;100112.97;4910741;29;19930;-84
2022/10/26 05:12:59;;;;;;;;;;;;;;;17.31;51.71;100116.19;4911559;29;19919;-82
2022/10/26 05:15:25;;;;;;;;;;;;;;;17.35;51.78;100114.31;4911003;29;19919;-82
2022/10/26 05:17:57;;;;;;;;;;;;;;;17.48;51.22;100114.72;4909978;29;19946;-82
2022/10/26 05:20:28;;;;;;;;;;;;;;;17.55;51.11;100116.25;4908016;29;19929;-83
2022/10/26 05:22:53;;;;;;;;;;;;;;;17.78;50.08;100125.16;4892898;29;19916;-84
2022/10/26 05:25:19;;;;;;;;;;;;;;;17.96;50.21;100128.97;4900635;29;19926;-85
2022/10/26 05:27:44;;;;;;;;;;;;;;;17.99;49.75;100127.06;4907421;29;19923;-85
2022/10/26 05:30:10;;;;;;;;;;;;;;;17.90;50.49;100132.75;4924184;29;19919;-85
2022/10/26 05:32:35;;;;;;;;;;;;;;;18.00;50.17;100128.81;4919087;29;20362;-83
2022/10/26 05:35:01;;;;;;;;;;;;;;;18.15;49.89;100134.47;4929763;29;19980;-84
2022/10/26 05:37:29;;;;;;;;;;;;;;;17.91;51.13;100139.81;4929779;29;19922;-84
2022/10/26 05:39:54;;;;;;;;;;;;;;;18.11;51.34;100130.19;4909833;29;19929;-84
2022/10/26 05:42:19;;;;;;;;;;;;;;;18.28;50.77;100125.03;4904233;29;19924;-84
2022/10/26 05:44:45;;;;;;;;;;;;;;;18.32;50.78;100132.00;4897585;29;19911;-85
2022/10/26 05:47:10;;;;;;;;;;;;;;;18.46;50.63;100133.22;4905410;29;20314;-84
2022/10/26 05:49:35;;;;;;;;;;;;;;;18.62;50.32;100137.03;4910721;29;19973;-82
2022/10/26 05:52:01;;;;;;;;;;;;;;;18.67;50.01;100140.38;4910586;29;20465;-82
2022/10/26 05:54:26;;;;;;;;;;;;;;;18.76;50.29;100139.13;4913552;29;19915;-83
2022/10/26 05:56:51;;;;;;;;;;;;;;;18.88;50.48;100143.13;4915075;29;19970;-82
2022/10/26 05:59:17;;;;;;;;;;;;;;;18.94;49.49;100140.19;4914703;29;20290;-83
2022/10/26 06:02:00;;;;;;;;;;;;;;;19.02;49.52;100142.53;4915774;29;19915;-83
2022/10/26 06:04:37;;;;;;;;;;;;;;;19.29;49.48;100145.81;4914847;29;19922;-83
2022/10/26 06:07:03;;;;;;;;;;;;;;;19.19;49.27;100144.47;4914955;29;20462;-84
2022/10/26 06:09:29;;;;;;;;;;;;;;;19.36;48.84;100144.59;4897941;29;20282;-84
2022/10/26 06:11:54;;;;;;;;;;;;;;;19.32;48.97;100151.91;4914593;29;19926;-82
2022/10/26 06:14:19;;;;;;;;;;;;;;;19.63;48.32;100149.66;4914332;29;19919;-84
2022/10/26 06:17:05;;;;;;;;;;;;;;;19.77;48.77;100157.97;4914553;29;20404;-83
2022/10/26 06:19:36;;;;;;;;;;;;;;;20.09;47.28;100155.59;4904103;29;20034;-84
2022/10/26 06:22:07;;;;;;;;;;;;;;;20.27;46.63;100158.34;4914055;29;20421;-83
2022/10/26 06:24:39;;;;;;;;;;;;;;;20.36;46.48;100158.75;4914492;29;20001;-84
2022/10/26 06:27:19;;;;;;;;;;;;;;;20.42;46.80;100162.97;4914817;29;20291;-83
2022/10/26 06:29:44;;;;;;;;;;;;;;;20.41;46.81;100166.59;4914182;29;20287;-83
2022/10/26 06:32:10;;;;;;;;;;;;;;;20.52;46.02;100166.06;4897573;29;19926;-83
2022/10/26 06:34:36;;;;;;;;;;;;;;;20.65;45.59;100172.59;4914848;29;19918;-83
2022/10/26 06:37:02;;;;;;;;;;;;;;;20.81;45.59;100167.34;4914529;29;19919;-83
2022/10/26 06:39:30;;;;;;;;;;;;;;;20.78;45.12;100172.00;4914584;29;19919;-83
2022/10/26 06:41:56;;;;;;;;;;;;;;;20.70;45.15;100175.06;4914154;29;19926;-83
2022/10/26 06:44:25;;;;;;;;;;;;;;;21.07;44.47;100168.69;4913774;29;19915;-83
2022/10/26 06:46:53;;;;;;;;;;;;;;;20.99;44.44;100173.59;4914324;29;19981;-83
2022/10/26 06:49:26;;;;;;;;;;;;;;;21.08;44.48;100172.25;4914152;29;19919;-83
2022/10/26 06:52:10;;;;;;;;;;;;;;;21.16;44.84;100170.03;4913904;29;19962;-83
2022/10/26 06:54:50;;;;;;;;;;;;;;;21.36;44.56;100179.72;4914250;29;19919;-83
2022/10/26 06:57:16;;;;;;;;;;;;;;;21.27;44.10;100174.84;4914168;29;19938;-83
2022/10/26 06:59:45;;;;;;;;;;;;;;;21.39;43.97;100176.00;4914049;29;19994;-83
2022/10/26 07:02:11;;;;;;;;;;;;;;;21.56;43.79;100177.84;4913807;29;19918;-83
2022/10/26 07:04:36;;;;;;;;;;;;;;;21.55;43.49;100185.03;4912921;29;19926;-83
2022/10/26 07:07:01;;;;;;;;;;;;;;;21.74;43.12;100174.19;4913323;29;19926;-85
2022/10/26 07:09:27;;;;;;;;;;;;;;;21.69;42.52;100183.41;4913338;29;19942;-83
2022/10/26 07:11:52;;;;;;;;;;;;;;;21.70;42.93;100185.16;4913598;29;19919;-84
2022/10/26 07:14:17;;;;;;;;;;;;;;;21.91;42.46;100169.72;4913552;29;20005;-82
2022/10/26 07:16:42;;;;;;;;;;;;;;;21.99;42.17;100173.69;4913642;29;19997;-82
2022/10/26 07:19:09;;;;;;;;;;;;;;;22.07;42.20;100181.34;4896118;29;19919;-83
2022/10/26 07:21:34;;;;;;;;;;;;;;;22.07;42.44;100177.78;4896727;29;19985;-82
2022/10/26 07:24:00;;;;;;;;;;;;;;;22.18;41.49;100183.44;4913368;29;19919;-82
2022/10/26 07:26:26;;;;;;;;;;;;;;;22.05;41.31;100179.72;4913653;29;19919;-84
2022/10/26 07:28:52;;;;;;;;;;;;;;;22.05;41.59;100179.72;4896251;29;20609;-83
2022/10/26 07:31:18;;;;;;;;;;;;;;;22.18;41.24;100183.44;4896342;29;19978;-83
2022/10/26 07:33:44;;;;;;;;;;;;;;;22.27;41.04;100184.75;4912402;29;20309;-83
2022/10/26 07:36:09;;;;;;;;;;;;;;;22.23;41.54;100177.81;4913310;29;20025;-83
2022/10/26 07:38:35;;;;;;;;;;;;;;;22.22;41.27;100187.69;4912773;29;20448;-82
2022/10/26 07:41:01;;;;;;;;;;;;;;;22.38;41.29;100184.19;4913403;29;19919;-83
2022/10/26 07:43:26;;;;;;;;;;;;;;;22.64;40.59;100180.88;4913196;29;20409;-82
2022/10/26 07:45:52;;;;;;;;;;;;;;;22.69;40.11;100184.16;4913206;29;20416;-83
2022/10/26 07:48:17;;;;;;;;;;;;;;;22.53;40.29;100178.78;4913245;29;19919;-83
2022/10/26 07:50:42;;;;;;;;;;;;;;;22.45;40.62;100180.19;4912875;29;19915;-83
2022/10/26 07:53:08;;;;;;;;;;;;;;;23.04;40.27;100181.22;4912906;29;20058;-83
2022/10/26 07:55:33;;;;;;;;;;;;;;;22.93;39.68;100183.69;4913114;29;20374;-84
2022/10/26 07:57:59;;;;;;;;;;;;;;;22.95;40.39;100184.44;4912917;29;19919;-83
2022/10/26 08:00:25;;;;;;;;;;;;;;;23.14;39.16;100192.34;4913061;29;19919;-83
2022/10/26 08:02:50;;;;;;;;;;;;;;;22.82;39.68;100178.09;4912727;29;20500;-83
2022/10/26 08:05:16;;;;;;;;;;;;;;;23.12;39.62;100185.31;4912706;29;19923;-83
2022/10/26 08:07:42;;;;;;;;;;;;;;;22.97;39.46;100176.28;4913013;29;19919;-83
2022/10/26 08:10:08;;;;;;;;;;;;;;;22.93;39.82;100185.53;4912814;29;19919;-83
2022/10/26 08:12:33;;;;;;;;;;;;;;;23.00;39.28;100176.13;4912540;29;20358;-83
2022/10/26 08:14:58;;;;;;;;;;;;;;;22.80;39.29;100186.25;4912307;29;20397;-83
2022/10/26 08:17:24;;;;;;;;;;;;;;;22.88;39.55;100175.03;4895359;29;19965;-83
2022/10/26 08:19:49;;;;;;;;;;;;;;;23.10;40.22;100180.03;4912736;29;19915;-83
2022/10/26 08:22:14;;;;;;;;;;;;;;;23.34;38.61;100184.91;4912260;29;19921;-82
2022/10/26 08:24:41;;;;;;;;;;;;;;;23.35;38.56;100178.56;4912756;29;19911;-83
2022/10/26 08:27:06;;;;;;;;;;;;;;;23.07;38.43;100183.72;4912796;29;19923;-84
2022/10/26 08:29:32;;;;;;;;;;;;;;;23.09;38.43;100188.19;4912518;29;20002;-83
2022/10/26 08:31:57;;;;;;;;;;;;;;;23.12;38.92;100188.00;4912526;29;19915;-83
2022/10/26 08:34:22;;;;;;;;;;;;;;;23.18;38.32;100177.75;4912905;29;20380;-83
2022/10/26 08:36:49;;;;;;;;;;;;;;;23.32;38.49;100170.69;4912707;29;19926;-83
2022/10/26 08:39:14;;;;;;;;;;;;;;;23.50;37.02;100174.09;4914659;29;19926;-82
2022/10/26 08:41:42;;;;;;;;;;;;;;;23.56;37.51;100173.69;4914536;29;19915;-83
2022/10/26 08:44:15;;;;;;;;;;;;;;;24.00;38.16;100177.28;4921323;29;19918;-83
2022/10/26 08:46:44;;;;;;;;;;;;;;;23.76;36.90;100172.47;4941555;28;19925;-83
2022/10/26 08:49:28;;;;;;;;;;;;;;;23.58;37.76;100174.47;4955509;28;19922;-82
2022/10/26 08:51:59;;;;;;;;;;;;;;;23.92;37.67;100175.94;4955338;28;19914;-81
2022/10/26 08:54:36;;;;;;;;;;;;;;;23.81;37.54;100182.97;4954686;28;19921;-82
2022/10/26 08:57:09;;;;;;;;;;;;;;;23.89;37.22;100184.22;4932863;29;20382;-83
2022/10/26 08:59:56;;;;;;;;;;;;;;;24.06;36.56;100187.69;4948548;29;20403;-82
2022/10/26 09:02:23;;;;;;;;;;;;;;;24.29;37.27;100180.81;4950460;28;20004;-82
2022/10/26 09:04:50;;;;;;;;;;;;;;;24.13;36.16;100183.66;4949609;29;19970;-82
2022/10/26 09:07:24;;;;;;;;;;;;;;;24.45;36.41;100186.06;4948909;28;20016;-81
2022/10/26 09:10:01;;;;;;;;;;;;;;;24.44;36.02;100185.22;4929911;29;19930;-81
2022/10/26 09:12:26;;;;;;;;;;;;;;;24.32;35.74;100191.41;4929761;29;19923;-83
2022/10/26 09:15:07;;;;;;;;;;;;;;;24.62;34.93;100176.91;4929866;29;19942;-83
2022/10/26 09:17:39;;;;;;;;;;;;;;;24.54;34.98;100172.00;4930505;29;20374;-83
2022/10/26 09:20:07;;;;;;;;;;;;;;;24.58;35.09;100175.41;4929939;29;19915;-82
2022/10/26 09:22:35;;;;;;;;;;;;;;;24.66;35.88;100179.31;4926098;29;19918;-83
2022/10/26 09:25:21;;;;;;;;;;;;;;;24.52;35.28;100181.16;4945461;29;19925;-82
2022/10/26 09:27:49;;;;;;;;;;;;;;;24.74;34.63;100177.94;4934047;29;19922;-82
2022/10/26 09:30:16;;;;;;;;;;;;;;;24.67;34.40;100172.09;4943112;29;19914;-82
2022/10/26 09:32:44;;;;;;;;;;;;;;;24.57;35.08;100177.22;4939340;29;19919;-82
2022/10/26 09:35:15;;;;;;;;;;;;;;;24.69;34.98;100177.38;4936893;29;20013;-82
2022/10/26 09:37:45;;;;;;;;;;;;;;;24.98;33.52;100172.75;4932576;29;19918;-82
2022/10/26 09:40:17;;;;;;;;;;;;;;;24.77;33.87;100175.91;4929964;29;19922;-81
2022/10/26 09:42:48;;;;;;;;;;;;;;;24.55;34.03;100168.34;4930007;29;19982;-81
2022/10/26 09:45:28;;;;;;;;;;;;;;;24.61;35.07;100170.66;4928765;29;19915;-81
2022/10/26 09:47:55;;;;;;;;;;;;;;;24.77;34.76;100169.66;4930263;29;19923;-81
2022/10/26 09:50:27;;;;;;;;;;;;;;;24.97;34.61;100177.25;4930193;29;20374;-82
2022/10/26 09:52:52;;;;;;;;;;;;;;;24.97;34.29;100165.59;4929846;29;19926;-81
2022/10/26 09:55:19;;;;;;;;;;;;;;;25.06;33.94;100159.59;4929696;29;20321;-81
2022/10/26 09:57:46;;;;;;;;;;;;;;;25.03;33.53;100165.19;4929583;29;19918;-82
2022/10/26 10:00:15;;;;;;;;;;;;;;;25.23;32.88;100158.44;4912061;29;20310;-80
2022/10/26 10:02:45;;;;;;;;;;;;;;;25.26;32.86;100155.50;4929643;29;19919;-82
2022/10/26 10:05:20;;;;;;;;;;;;;;;25.18;32.43;100150.66;4929601;29;19919;-81
2022/10/26 10:07:45;;;;;;;;;;;;;;;25.21;32.77;100154.97;4929501;29;19927;-81
2022/10/26 10:10:15;;;;;;;;;;;;;;;25.15;32.98;100142.75;4929805;29;19911;-80
2022/10/26 10:12:41;;;;;;;;;;;;;;;25.23;32.60;100138.69;4929529;29;19919;-81
2022/10/26 10:15:16;;;;;;;;;;;;;;;25.22;32.85;100136.94;4929017;29;19922;-80
2022/10/26 10:17:45;;;;;;;;;;;;;;;25.28;32.69;100131.97;4929759;29;19922;-81
2022/10/26 10:20:17;;;;;;;;;;;;;;;25.18;32.60;100129.06;4929632;29;19969;-82
2022/10/26 10:22:58;;;;;;;;;;;;;;;25.48;32.36;100130.59;4929897;29;20010;-81
2022/10/26 10:25:33;;;;;;;;;;;;;;;25.47;32.15;100120.78;4929930;28;21323;-81
2022/10/26 10:27:58;;;;;;;;;;;;;;;25.44;32.26;100123.72;4929941;29;20385;-81
2022/10/26 10:30:28;;;;;;;;;;;;;;;25.52;32.41;100124.03;4929775;29;19919;-82
2022/10/26 10:33:03;;;;;;;;;;;;;;;25.46;32.32;100121.75;4929619;29;19923;-80
2022/10/26 10:35:29;;;;;;;;;;;;;;;25.37;32.67;100125.97;4929884;29;19990;-80
2022/10/26 10:37:54;;;;;;;;;;;;;;;25.48;32.51;100118.94;4929687;29;19926;-80
2022/10/26 10:40:21;;;;;;;;;;;;;;;25.60;31.81;100117.22;4930635;29;20796;-81
2022/10/26 10:42:47;;;;;;;;;;;;;;;25.32;31.19;100111.94;4937009;29;19914;-81
2022/10/26 10:45:31;;;;;;;;;;;;;;;25.44;31.68;100104.81;4952606;29;20001;-81
2022/10/26 10:48:11;;;;;;;;;;;;;;;25.53;31.20;100105.97;4952393;29;19918;-83
2022/10/26 10:50:49;;;;;;;;;;;;;;;25.62;31.10;100099.06;4952061;28;19922;-82
2022/10/26 10:53:24;;;;;;;;;;;;;;;25.60;30.86;100095.63;4952094;29;19918;-81
2022/10/26 10:55:52;;;;;;;;;;;;;;;25.61;30.56;100091.91;4952235;28;19918;-81
2022/10/26 10:58:20;;;;;;;;;;;;;;;25.78;30.78;100090.72;4952187;28;19920;-82
2022/10/26 11:00:47;;;;;;;;;;;;;;;25.85;31.05;100082.06;4951705;28;19914;-82
2022/10/26 11:03:15;;;;;;;;;;;;;;;25.99;30.94;100081.06;4952035;28;19918;-82
2022/10/26 11:05:44;;;;;;;;;;;;;;;26.09;29.69;100078.56;4951649;28;19914;-82
2022/10/26 11:08:24;;;;;;;;;;;;;;;25.99;30.63;100078.38;4951702;28;20028;-82
2022/10/26 11:10:58;;;;;;;;;;;;;;;26.23;29.97;100081.09;4951861;28;19945;-81
2022/10/26 11:13:27;;;;;;;;;;;;;;;25.99;29.78;100083.78;4951594;28;19925;-83
2022/10/26 11:15:55;;;;;;;;;;;;;;;26.00;30.75;100077.41;4952338;28;19918;-81
2022/10/26 11:18:34;;;;;;;;;;;;;;;26.22;31.02;100083.94;4951413;29;19910;-81
2022/10/26 11:21:02;;;;;;;;;;;;;;;26.33;29.47;100075.88;4951850;29;19918;-80
2022/10/26 11:23:37;;;;;;;;;;;;;;;26.65;28.98;100075.28;4951701;28;19925;-81
2022/10/26 11:26:19;;;;;;;;;;;;;;;26.58;29.01;100069.47;4951412;28;19980;-81
2022/10/26 11:28:44;;;;;;;;;;;;;;;26.45;29.17;100069.53;4951491;28;19969;-82
2022/10/26 11:31:17;;;;;;;;;;;;;;;26.19;30.30;100067.94;4951064;29;20407;-82
2022/10/26 11:33:47;;;;;;;;;;;;;;;26.33;29.75;100070.47;4951617;29;19918;-82
2022/10/26 11:36:15;;;;;;;;;;;;;;;26.31;29.92;100063.47;4951276;28;19914;-82
2022/10/26 11:38:49;;;;;;;;;;;;;;;26.18;30.06;100058.97;4951612;29;19918;-80
2022/10/26 11:41:21;;;;;;;;;;;;;;;26.23;30.71;100062.19;4935469;29;19930;-81
2022/10/26 11:43:47;;;;;;;;;;;;;;;26.12;30.08;100058.53;4931970;29;20385;-80
2022/10/26 11:46:18;;;;;;;;;;;;;;;26.04;30.00;100060.00;4932048;29;19929;-81
2022/10/26 11:48:46;;;;;;;;;;;;;;;26.22;29.74;100065.00;4931661;29;19929;-82
2022/10/26 11:51:19;;;;;;;;;;;;;;;26.30;30.09;100059.88;4931481;29;19919;-80
2022/10/26 11:53:46;;;;;;;;;;;;;;;26.16;29.83;100062.75;4931848;29;19914;-81
2022/10/26 11:56:15;;;;;;;;;;;;;;;26.29;29.61;100054.59;4931935;29;20452;-80
2022/10/26 11:58:42;;;;;;;;;;;;;;;26.30;29.84;100053.63;4931792;29;20007;-80
2022/10/26 12:01:09;;;;;;;;;;;;;;;26.39;29.28;100059.19;4931564;29;19921;-81
2022/10/26 12:03:44;;;;;;;;;;;;;;;26.44;29.55;100059.69;4932058;29;20400;-81
2022/10/26 12:06:10;;;;;;;;;;;;;;;26.32;29.79;100059.75;4931614;29;20435;-83
2022/10/26 12:08:37;;;;;;;;;;;;;;;26.09;30.17;100055.09;4931921;29;19915;-83
2022/10/26 12:11:18;;;;;;;;;;;;;;;26.07;30.20;100058.88;4931804;29;19915;-82
2022/10/26 12:13:46;;;;;;;;;;;;;;;25.89;30.26;100056.53;4931357;29;20471;-82
2022/10/26 12:16:30;;;;;;;;;;;;;;;26.08;30.34;100049.81;4931300;29;20381;-83
2022/10/26 12:19:08;;;;;;;;;;;;;;;26.21;29.99;100050.63;4931503;29;19918;-83
2022/10/26 12:21:33;;;;;;;;;;;;;;;26.29;29.56;100043.75;4931559;29;20074;-82
2022/10/26 12:24:00;;;;;;;;;;;;;;;26.17;29.78;100043.72;4913972;29;20439;-83
2022/10/26 12:26:26;;;;;;;;;;;;;;;26.13;29.99;100047.63;4931400;29;19918;-83
2022/10/26 12:29:00;;;;;;;;;;;;;;;26.12;29.53;100039.63;4931442;29;20397;-83
2022/10/26 12:31:31;;;;;;;;;;;;;;;26.26;30.05;100044.88;4931461;29;19919;-81
2022/10/26 12:33:57;;;;;;;;;;;;;;;26.42;29.97;100039.16;4931098;29;19922;-82
2022/10/26 12:36:41;;;;;;;;;;;;;;;26.50;30.00;100050.25;4914206;29;19919;-81
2022/10/26 12:39:24;;;;;;;;;;;;;;;26.37;29.63;100047.63;4931528;29;19954;-82
2022/10/26 12:41:57;;;;;;;;;;;;;;;26.33;29.57;100043.41;4931408;29;19918;-81
2022/10/26 12:44:42;;;;;;;;;;;;;;;26.51;29.92;100043.00;4930559;29;19915;-82
2022/10/26 12:47:08;;;;;;;;;;;;;;;26.38;29.60;100043.06;4930773;29;19923;-81
2022/10/26 12:49:53;;;;;;;;;;;;;;;26.44;29.50;100056.97;4931108;29;19970;-82